createdAt,value
2017-06-10T00:00:59.340Z,2.07
2017-06-10T00:03:27.584Z,4.60
2017-06-10T00:05:55.876Z,2.70
2017-06-10T00:08:24.119Z,2.97
2017-06-10T00:10:52.358Z,3.07
2017-06-10T00:13:20.632Z,2.57
2017-06-10T00:15:48.876Z,2.83
2017-06-10T00:18:17.130Z,1.50
2017-06-10T00:20:45.779Z,2.07
2017-06-10T00:23:14.023Z,1.40
2017-06-10T00:25:42.265Z,2.23
2017-06-10T00:28:10.933Z,3.33
2017-06-10T00:30:39.163Z,1.63
2017-06-10T00:33:07.399Z,2.10
2017-06-10T00:35:35.648Z,3.00
2017-06-10T00:38:04.133Z,3.00
2017-06-10T00:40:32.714Z,2.60
2017-06-10T00:43:00.945Z,2.47
2017-06-10T00:45:29.183Z,11.43
2017-06-10T00:47:57.707Z,2.67
2017-06-10T00:50:25.989Z,1.60
2017-06-10T00:52:54.236Z,2.63
2017-06-10T00:55:22.516Z,3.67
2017-06-10T00:57:50.843Z,1.90
2017-06-10T01:00:19.072Z,3.23
2017-06-10T01:02:47.325Z,2.10
2017-06-10T01:05:15.948Z,3.60
2017-06-10T01:07:44.189Z,2.87
2017-06-10T01:10:12.447Z,2.20
2017-06-10T01:12:40.683Z,2.90
2017-06-10T01:15:09.191Z,3.70
2017-06-10T01:17:37.888Z,5.80
2017-06-10T01:20:06.146Z,1.90
2017-06-10T01:22:34.367Z,3.53
2017-06-10T01:25:02.647Z,8.83
2017-06-10T01:27:31.267Z,2.60
2017-06-10T01:29:59.516Z,3.00
2017-06-10T01:32:27.817Z,2.07
2017-06-10T01:34:56.047Z,2.73
2017-06-10T01:37:24.681Z,1.90
2017-06-10T01:39:52.936Z,3.40
2017-06-10T01:42:21.178Z,4.63
2017-06-10T01:44:50.045Z,4.53
2017-06-10T01:47:18.413Z,4.90
2017-06-10T01:49:46.644Z,2.70
2017-06-10T01:52:14.885Z,3.23
2017-06-10T01:54:43.149Z,1.70
2017-06-10T01:57:11.741Z,2.70
2017-06-10T01:59:39.959Z,2.20
2017-06-10T02:02:08.229Z,2.37
2017-06-10T02:04:36.463Z,3.40
2017-06-10T02:07:04.723Z,4.43
2017-06-10T02:09:32.972Z,2.37
2017-06-10T02:12:01.208Z,4.27
2017-06-10T02:14:29.842Z,3.43
2017-06-10T02:16:58.348Z,5.00
2017-06-10T02:19:26.578Z,3.77
2017-06-10T02:21:54.825Z,2.57
2017-06-10T02:24:23.687Z,3.20
2017-06-10T02:26:51.927Z,3.93
2017-06-10T02:29:20.155Z,3.47
2017-06-10T02:31:48.823Z,5.27
2017-06-10T02:34:17.062Z,4.50
2017-06-10T02:36:45.314Z,6.00
2017-06-10T02:39:13.973Z,4.13
2017-06-10T02:41:42.201Z,5.50
2017-06-10T02:44:10.440Z,9.23
2017-06-10T02:46:38.712Z,2.03
2017-06-10T02:49:07.783Z,3.90
2017-06-10T02:51:36.016Z,3.03
2017-06-10T02:54:04.281Z,4.63
2017-06-10T02:56:32.524Z,7.80
2017-06-10T02:59:01.158Z,2.30
2017-06-10T03:01:29.446Z,5.27
2017-06-10T03:03:57.693Z,4.37
2017-06-10T03:06:25.907Z,1.90
2017-06-10T03:08:54.163Z,4.00
2017-06-10T03:11:22.396Z,5.10
2017-06-10T03:13:51.021Z,5.80
2017-06-10T03:16:19.332Z,7.93
2017-06-10T03:18:47.563Z,5.17
2017-06-10T03:21:15.795Z,6.30
2017-06-10T03:23:44.196Z,5.17
2017-06-10T03:26:13.315Z,2.60
2017-06-10T03:28:41.563Z,7.80
2017-06-10T03:31:10.236Z,4.83
2017-06-10T03:33:38.863Z,6.53
2017-06-10T03:36:07.106Z,5.70
2017-06-10T03:38:35.745Z,3.30
2017-06-10T03:41:03.986Z,4.60
2017-06-10T03:43:32.268Z,9.23
2017-06-10T03:46:01.301Z,2.37
2017-06-10T03:48:29.533Z,4.07
2017-06-10T03:50:57.870Z,5.03
2017-06-10T03:53:26.103Z,4.30
2017-06-10T03:55:54.341Z,2.40
2017-06-10T03:58:22.575Z,3.57
2017-06-10T04:00:50.823Z,10.50
2017-06-10T04:03:19.075Z,4.73
2017-06-10T04:05:47.305Z,6.73
2017-06-10T04:08:15.551Z,8.83
2017-06-10T04:10:43.832Z,10.57
2017-06-10T04:13:12.080Z,8.00
2017-06-10T04:15:40.631Z,3.93
2017-06-10T04:18:08.986Z,4.10
2017-06-10T04:20:37.209Z,9.63
2017-06-10T04:23:05.463Z,12.23
2017-06-10T04:25:33.720Z,10.13
2017-06-10T04:28:01.959Z,13.87
2017-06-10T04:30:30.202Z,12.30
2017-06-10T04:32:58.847Z,12.33
2017-06-10T04:35:27.083Z,13.77
2017-06-10T04:37:55.326Z,11.30
2017-06-10T04:40:23.865Z,16.63
2017-06-10T04:42:52.111Z,13.63
2017-06-10T04:45:21.108Z,9.20
2017-06-10T04:47:49.635Z,8.67
2017-06-10T04:50:17.867Z,13.73
2017-06-10T04:52:46.101Z,6.47
2017-06-10T04:55:14.339Z,5.40
2017-06-10T04:57:42.575Z,3.60
2017-06-10T05:00:10.888Z,13.63
2017-06-10T05:02:39.500Z,5.30
2017-06-10T05:05:07.743Z,6.37
2017-06-10T05:07:36.866Z,3.17
2017-06-10T05:10:05.089Z,7.20
2017-06-10T05:12:33.417Z,8.10
2017-06-10T05:15:01.873Z,11.70
2017-06-10T05:17:30.112Z,7.83
2017-06-10T05:19:58.749Z,8.20
2017-06-10T05:22:27.018Z,6.03
2017-06-10T05:24:55.519Z,8.63
2017-06-10T05:27:23.756Z,10.43
2017-06-10T05:29:52.016Z,10.40
2017-06-10T05:32:20.252Z,5.73
2017-06-10T05:34:48.491Z,2.43
2017-06-10T05:37:16.788Z,5.83
2017-06-10T05:39:45.021Z,4.07
2017-06-10T05:42:13.264Z,6.00
2017-06-10T05:44:41.547Z,6.60
2017-06-10T05:47:09.824Z,6.93
2017-06-10T05:49:39.134Z,5.63
2017-06-10T05:52:08.351Z,6.90
2017-06-10T05:54:37.703Z,6.40
2017-06-10T05:57:06.704Z,7.17
2017-06-10T05:59:35.883Z,7.83
2017-06-10T06:02:05.185Z,7.37
2017-06-10T06:04:34.141Z,9.40
2017-06-10T06:07:02.758Z,5.70
2017-06-10T06:09:32.136Z,15.40
2017-06-10T06:12:01.526Z,9.87
2017-06-10T06:14:30.141Z,6.30
2017-06-10T06:16:59.556Z,4.07
2017-06-10T06:19:28.877Z,9.20
2017-06-10T06:21:58.148Z,6.27
2017-06-10T06:24:26.726Z,5.93
2017-06-10T06:26:55.842Z,8.70
2017-06-10T06:29:24.473Z,5.97
2017-06-10T06:31:53.208Z,5.80
2017-06-10T06:34:21.935Z,6.73
2017-06-10T06:36:50.988Z,8.13
2017-06-10T06:39:19.244Z,6.03
2017-06-10T06:41:47.492Z,7.33
2017-06-10T06:44:16.103Z,7.40
2017-06-10T06:46:44.639Z,4.90
2017-06-10T06:49:13.039Z,6.80
2017-06-10T06:51:41.728Z,9.90
2017-06-10T06:54:10.042Z,8.80
2017-06-10T06:56:39.152Z,7.43
2017-06-10T06:59:07.653Z,6.87
2017-06-10T07:01:36.326Z,6.30
2017-06-10T07:04:04.565Z,6.40
2017-06-10T07:06:33.058Z,6.50
2017-06-10T07:09:01.343Z,10.03
2017-06-10T07:11:29.571Z,7.50
2017-06-10T07:13:58.101Z,4.57
2017-06-10T07:16:26.680Z,5.80
2017-06-10T07:18:55.336Z,5.73
2017-06-10T07:21:23.585Z,6.63
2017-06-10T07:23:51.839Z,6.63
2017-06-10T07:26:20.188Z,6.40
2017-06-10T07:28:48.427Z,6.70
2017-06-10T07:31:16.680Z,6.40
2017-06-10T07:33:44.913Z,8.07
2017-06-10T07:36:13.367Z,6.30
2017-06-10T07:38:41.610Z,8.33
2017-06-10T07:41:09.946Z,7.17
2017-06-10T07:43:38.210Z,8.83
2017-06-10T07:46:06.444Z,7.17
2017-06-10T07:48:35.309Z,8.07
2017-06-10T07:51:03.920Z,5.50
2017-06-10T07:53:32.382Z,7.83
2017-06-10T07:56:00.987Z,10.23
2017-06-10T07:58:29.418Z,4.87
2017-06-10T08:00:58.347Z,5.23
2017-06-10T08:03:26.595Z,7.43
2017-06-10T08:05:55.217Z,5.23
2017-06-10T08:08:23.462Z,8.50
2017-06-10T08:10:51.762Z,6.80
2017-06-10T08:13:20.038Z,5.43
2017-06-10T08:15:48.333Z,6.57
2017-06-10T08:18:16.808Z,5.70
2017-06-10T08:20:45.093Z,7.43
2017-06-10T08:23:13.340Z,4.70
2017-06-10T08:25:42.012Z,8.50
2017-06-10T08:28:10.277Z,4.30
2017-06-10T08:30:38.513Z,10.40
2017-06-10T08:33:06.757Z,4.87
2017-06-10T08:35:35.161Z,6.90
2017-06-10T08:38:03.403Z,7.90
2017-06-10T08:40:32.229Z,7.63
2017-06-10T08:43:00.516Z,5.10
2017-06-10T08:45:28.872Z,6.00
2017-06-10T08:47:57.123Z,3.10
2017-06-10T08:50:26.191Z,4.77
2017-06-10T08:52:54.457Z,7.13
2017-06-10T08:55:22.685Z,5.67
2017-06-10T08:57:50.986Z,2.93
2017-06-10T09:00:19.228Z,6.77
2017-06-10T09:02:47.459Z,9.77
2017-06-10T09:05:15.916Z,5.43
2017-06-10T09:07:44.174Z,3.60
2017-06-10T09:10:12.408Z,4.20
2017-06-10T09:12:40.731Z,6.60
2017-06-10T09:15:08.975Z,7.67
2017-06-10T09:17:37.237Z,3.93
2017-06-10T09:20:05.523Z,6.13
2017-06-10T09:22:34.170Z,5.07
2017-06-10T09:25:02.400Z,4.37
2017-06-10T09:27:30.745Z,4.47
2017-06-10T09:29:58.995Z,20.80
2017-06-10T09:32:27.254Z,54.73
2017-06-10T09:34:55.516Z,118.47
2017-06-10T09:37:24.048Z,70.83
2017-06-10T09:39:52.632Z,66.03
2017-06-10T09:42:20.884Z,65.60
2017-06-10T09:44:49.135Z,42.53
2017-06-10T09:47:17.455Z,17.83
2017-06-10T09:49:45.721Z,26.80
2017-06-10T09:52:13.992Z,73.47
2017-06-10T09:54:42.279Z,51.47
2017-06-10T09:57:11.685Z,16.80
2017-06-10T09:59:40.078Z,37.13
2017-06-10T10:02:08.539Z,5.40
2017-06-10T10:04:37.203Z,8.80
2017-06-10T10:07:06.164Z,7.47
2017-06-10T10:09:35.214Z,12.90
2017-06-10T10:12:03.854Z,6.67
2017-06-10T10:14:32.376Z,8.40
2017-06-10T10:17:00.864Z,7.93
2017-06-10T10:19:29.088Z,5.50
2017-06-10T10:21:57.753Z,4.60
2017-06-10T10:24:26.428Z,17.43
2017-06-10T10:26:54.679Z,20.07
2017-06-10T10:29:22.927Z,21.53
2017-06-10T10:31:51.210Z,15.47
2017-06-10T10:34:19.500Z,8.90
2017-06-10T10:36:47.735Z,13.80
2017-06-10T10:39:16.142Z,8.30
2017-06-10T10:41:44.432Z,6.50
2017-06-10T10:44:12.699Z,7.57
2017-06-10T10:46:40.963Z,7.37
2017-06-10T10:49:09.528Z,6.00
2017-06-10T10:51:37.732Z,7.10
2017-06-10T10:54:06.142Z,7.43
2017-06-10T10:56:34.395Z,8.10
2017-06-10T10:59:02.668Z,5.27
2017-06-10T11:01:30.948Z,6.17
2017-06-10T11:03:59.215Z,17.73
2017-06-10T11:06:27.450Z,4.33
2017-06-10T11:08:55.996Z,4.57
2017-06-10T11:11:24.777Z,5.43
2017-06-10T11:13:53.051Z,4.73
2017-06-10T11:16:21.429Z,7.37
2017-06-10T11:18:49.663Z,7.30
2017-06-10T11:21:18.281Z,13.30
2017-06-10T11:23:46.516Z,3.47
2017-06-10T11:26:14.769Z,4.10
2017-06-10T11:28:43.064Z,4.20
2017-06-10T11:31:11.342Z,3.27
2017-06-10T11:33:39.895Z,4.63
2017-06-10T11:36:08.483Z,3.97
2017-06-10T11:38:36.716Z,4.27
2017-06-10T11:41:04.964Z,7.03
2017-06-10T11:43:33.321Z,4.60
2017-06-10T11:46:01.561Z,5.17
2017-06-10T11:48:30.359Z,6.70
2017-06-10T11:50:58.943Z,4.60
2017-06-10T11:53:27.210Z,5.67
2017-06-10T11:55:55.487Z,3.80
2017-06-10T11:58:23.753Z,6.47
2017-06-10T12:00:52.106Z,4.13
2017-06-10T12:03:20.381Z,11.57
2017-06-10T12:05:48.662Z,6.30
2017-06-10T12:08:16.923Z,7.43
2017-06-10T12:10:45.153Z,6.73
2017-06-10T12:13:13.404Z,8.27
2017-06-10T12:15:41.655Z,4.87
2017-06-10T12:18:09.884Z,3.70
2017-06-10T12:20:38.132Z,5.23
2017-06-10T12:23:06.375Z,4.33
2017-06-10T12:25:34.686Z,7.40
2017-06-10T12:28:02.947Z,6.77
2017-06-10T12:30:31.190Z,7.30
2017-06-10T12:32:59.467Z,4.97
2017-06-10T12:35:27.804Z,4.27
2017-06-10T12:37:56.033Z,5.27
2017-06-10T12:40:24.275Z,5.67
2017-06-10T12:42:52.543Z,6.37
2017-06-10T12:45:21.018Z,4.57
2017-06-10T12:47:49.430Z,4.27
2017-06-10T12:50:17.672Z,9.30
2017-06-10T12:52:45.936Z,5.20
2017-06-10T12:55:14.177Z,6.80
2017-06-10T12:57:42.419Z,3.53
2017-06-10T13:00:10.947Z,6.13
2017-06-10T13:02:39.182Z,6.10
2017-06-10T13:05:07.433Z,7.37
2017-06-10T13:07:35.879Z,5.47
2017-06-10T13:10:04.177Z,6.93
2017-06-10T13:12:32.453Z,6.30
2017-06-10T13:15:00.705Z,4.43
2017-06-10T13:17:29.224Z,7.30
2017-06-10T13:19:57.460Z,9.17
2017-06-10T13:22:25.971Z,8.67
2017-06-10T13:24:54.436Z,4.07
2017-06-10T13:27:22.695Z,6.30
2017-06-10T13:29:50.976Z,7.97
2017-06-10T13:32:19.221Z,6.67
2017-06-10T13:34:47.557Z,7.20
2017-06-10T13:37:15.936Z,6.57
2017-06-10T13:39:44.175Z,7.80
2017-06-10T13:42:12.435Z,6.83
2017-06-10T13:44:41.072Z,12.70
2017-06-10T13:47:09.310Z,4.50
2017-06-10T13:49:37.834Z,6.20
2017-06-10T13:52:06.134Z,5.37
2017-06-10T13:54:34.365Z,5.53
2017-06-10T13:57:02.600Z,4.27
2017-06-10T13:59:30.932Z,4.07
2017-06-10T14:01:59.152Z,6.20
2017-06-10T14:04:27.420Z,4.60
2017-06-10T14:06:56.341Z,9.70
2017-06-10T14:09:24.597Z,6.67
2017-06-10T14:11:52.835Z,3.87
2017-06-10T14:14:22.122Z,3.17
2017-06-10T14:16:51.016Z,5.27
2017-06-10T14:19:19.714Z,6.07
2017-06-10T14:21:48.436Z,3.23
2017-06-10T14:24:16.750Z,5.60
2017-06-10T14:26:45.036Z,4.63
2017-06-10T14:29:13.377Z,4.37
2017-06-10T14:31:42.114Z,3.40
2017-06-10T14:34:10.944Z,5.07
2017-06-10T14:36:39.710Z,5.10
2017-06-10T14:39:08.783Z,4.63
2017-06-10T14:41:37.302Z,3.37
2017-06-10T14:44:06.161Z,4.73
2017-06-10T14:46:34.839Z,4.70
2017-06-10T14:49:03.844Z,4.43
2017-06-10T14:51:32.888Z,3.47
2017-06-10T14:56:46.091Z,3.70
2017-06-10T14:59:14.707Z,5.30
2017-06-10T15:01:43.093Z,5.57
2017-06-10T15:04:11.781Z,5.33
2017-06-10T15:06:40.613Z,3.33
2017-06-10T15:09:08.951Z,2.60
2017-06-10T15:11:37.437Z,3.77
2017-06-10T15:14:07.011Z,4.90
2017-06-10T15:16:35.263Z,4.70
2017-06-10T15:19:04.243Z,4.03
2017-06-10T15:21:33.443Z,3.10
2017-06-10T15:24:02.204Z,3.67
2017-06-10T15:26:31.248Z,4.50
2017-06-10T15:28:59.700Z,4.20
2017-06-10T15:31:28.172Z,2.93
2017-06-10T15:33:56.468Z,3.90
2017-06-10T15:36:24.717Z,3.63
2017-06-10T15:38:59.257Z,2.73
2017-06-10T15:41:28.755Z,3.17
2017-06-10T15:43:58.793Z,4.90
2017-06-10T15:46:27.154Z,2.60
2017-06-10T15:48:55.404Z,3.37
2017-06-10T15:51:23.701Z,4.90
2017-06-10T15:53:52.702Z,4.90
2017-06-10T15:56:21.264Z,3.77
2017-06-10T15:58:49.584Z,5.50
2017-06-10T16:01:18.207Z,3.53
2017-06-10T16:03:46.486Z,3.63
2017-06-10T16:06:14.727Z,3.30
2017-06-10T16:08:43.002Z,3.53
2017-06-10T16:11:13.076Z,2.63
2017-06-10T16:13:41.557Z,3.23
2017-06-10T16:16:09.788Z,6.77
2017-06-10T16:18:38.152Z,4.07
2017-06-10T16:21:07.508Z,2.83
2017-06-10T16:23:35.956Z,3.43
2017-06-10T16:26:04.304Z,3.47
2017-06-10T16:28:33.685Z,2.17
2017-06-10T16:31:02.755Z,2.10
2017-06-10T16:33:31.353Z,2.47
2017-06-10T16:35:59.857Z,5.67
2017-06-10T16:38:28.360Z,4.03
2017-06-10T16:40:56.652Z,4.80
2017-06-10T16:43:24.963Z,3.13
2017-06-10T16:45:53.851Z,2.90
2017-06-10T16:48:23.064Z,3.50
2017-06-10T16:50:51.342Z,4.63
2017-06-10T16:53:20.007Z,3.93
2017-06-10T16:55:48.312Z,3.10
2017-06-10T16:58:16.618Z,3.07
2017-06-10T17:00:45.539Z,2.30
2017-06-10T17:03:13.791Z,4.03
2017-06-10T17:05:42.036Z,3.80
2017-06-10T17:08:10.314Z,3.03
2017-06-10T17:10:38.626Z,3.87
2017-06-10T17:13:06.883Z,3.13
2017-06-10T17:15:35.153Z,4.03
2017-06-10T17:18:03.532Z,3.03
2017-06-10T17:20:32.558Z,3.30
2017-06-10T17:23:01.173Z,4.00
2017-06-10T17:25:29.495Z,2.73
2017-06-10T17:27:58.259Z,2.70
2017-06-10T17:30:26.664Z,4.23
2017-06-10T17:32:55.568Z,1.70
2017-06-10T17:35:24.167Z,2.27
2017-06-10T17:37:52.985Z,4.63
2017-06-10T17:40:21.227Z,3.47
2017-06-10T17:42:49.599Z,2.70
2017-06-10T17:45:17.852Z,4.00
2017-06-10T17:47:46.126Z,3.53
2017-06-10T17:50:14.759Z,2.47
2017-06-10T17:52:44.360Z,2.73
2017-06-10T17:55:12.862Z,4.57
2017-06-10T17:57:41.267Z,3.53
2017-06-10T18:00:09.796Z,4.57
2017-06-10T18:02:38.095Z,5.90
2017-06-10T18:05:06.330Z,4.40
2017-06-10T18:07:34.582Z,4.60
2017-06-10T18:10:03.226Z,5.97
2017-06-10T18:12:31.611Z,2.23
2017-06-10T18:15:00.507Z,3.50
2017-06-10T18:17:28.754Z,2.80
2017-06-10T18:19:57.023Z,2.60
2017-06-10T18:22:25.268Z,4.70
2017-06-10T18:24:53.924Z,3.73
2017-06-10T18:27:22.596Z,7.77
2017-06-10T18:29:50.820Z,3.40
2017-06-10T18:32:19.109Z,3.00
2017-06-10T18:34:47.386Z,3.00
2017-06-10T18:37:15.615Z,4.13
2017-06-10T18:39:43.887Z,3.23
2017-06-10T18:42:12.131Z,3.70
2017-06-10T18:44:40.366Z,3.67
2017-06-10T18:47:09.428Z,4.40
2017-06-10T18:49:37.676Z,2.50
2017-06-10T18:52:06.725Z,4.63
2017-06-10T18:54:35.656Z,4.30
2017-06-10T18:57:03.893Z,3.73
2017-06-10T18:59:32.153Z,3.77
2017-06-10T19:02:01.271Z,2.53
2017-06-10T19:04:29.913Z,2.60
2017-06-10T19:06:58.187Z,3.83
2017-06-10T19:09:26.452Z,2.43
2017-06-10T19:11:54.716Z,5.30
2017-06-10T19:14:23.286Z,2.83
2017-06-10T19:16:51.545Z,3.50
2017-06-10T19:19:19.800Z,3.13
2017-06-10T19:21:48.063Z,3.50
2017-06-10T19:24:16.320Z,2.87
2017-06-10T19:26:44.556Z,3.73
2017-06-10T19:29:12.836Z,4.43
2017-06-10T19:31:41.076Z,3.17
2017-06-10T19:34:09.723Z,2.63
2017-06-10T19:36:37.956Z,4.40
2017-06-10T19:39:06.208Z,5.37
2017-06-10T19:41:34.647Z,3.30
2017-06-10T19:44:03.698Z,3.03
2017-06-10T19:46:31.988Z,3.40
2017-06-10T19:49:00.272Z,3.77
2017-06-10T19:51:28.520Z,2.93
2017-06-10T19:53:57.168Z,3.23
2017-06-10T19:56:25.431Z,3.60
2017-06-10T19:58:53.672Z,4.40
2017-06-10T20:01:21.919Z,2.80
2017-06-10T20:03:50.556Z,3.57
2017-06-10T20:06:18.797Z,3.20
2017-06-10T20:08:47.052Z,3.80
2017-06-10T20:11:15.516Z,2.70
2017-06-10T20:13:43.758Z,10.33
2017-06-10T20:16:12.009Z,4.20
2017-06-10T20:18:40.442Z,6.70
2017-06-10T20:21:09.039Z,8.70
2017-06-10T20:23:37.525Z,5.70
2017-06-10T20:26:05.784Z,8.20
2017-06-10T20:28:34.024Z,10.60
2017-06-10T20:31:02.297Z,5.93
2017-06-10T20:33:30.572Z,4.13
2017-06-10T20:35:58.822Z,3.13
2017-06-10T20:38:27.099Z,4.10
2017-06-10T20:40:55.339Z,3.83
2017-06-10T20:43:23.830Z,4.77
2017-06-10T20:45:52.084Z,4.47
2017-06-10T20:48:20.324Z,4.03
2017-06-10T20:50:48.562Z,4.13
2017-06-10T20:53:16.834Z,7.77
2017-06-10T20:55:45.079Z,5.67
2017-06-10T20:58:13.622Z,6.77
2017-06-10T21:00:41.902Z,4.60
2017-06-10T21:03:10.131Z,8.33
2017-06-10T21:05:38.373Z,9.87
2017-06-10T21:08:06.646Z,4.83
2017-06-10T21:10:34.964Z,5.80
2017-06-10T21:13:03.454Z,6.07
2017-06-10T21:15:31.825Z,4.50
2017-06-10T21:18:00.060Z,5.77
2017-06-10T21:20:28.314Z,4.30
2017-06-10T21:22:57.163Z,4.27
2017-06-10T21:25:25.438Z,5.23
2017-06-10T21:27:53.769Z,6.50
2017-06-10T21:30:22.274Z,6.77
2017-06-10T21:32:50.509Z,5.23
2017-06-10T21:35:19.388Z,3.47
2017-06-10T21:37:47.651Z,3.90
2017-06-10T21:40:16.666Z,4.33
2017-06-10T21:42:44.898Z,3.30
2017-06-10T21:45:13.604Z,6.50
2017-06-10T21:47:41.840Z,6.57
2017-06-10T21:50:10.183Z,5.17
2017-06-10T21:52:39.253Z,4.40
2017-06-10T21:55:07.492Z,3.43
2017-06-10T21:57:35.757Z,3.30
2017-06-10T22:00:04.112Z,4.00
2017-06-10T22:02:32.350Z,4.13
2017-06-10T22:05:00.587Z,5.20
2017-06-10T22:07:28.834Z,7.60
2017-06-10T22:09:57.460Z,9.00
2017-06-10T22:12:25.734Z,8.10
2017-06-10T22:14:53.967Z,4.43
2017-06-10T22:17:22.212Z,3.47
2017-06-10T22:19:50.584Z,4.17
2017-06-10T22:22:18.816Z,7.67
2017-06-10T22:24:47.049Z,5.23
2017-06-10T22:27:15.732Z,5.53
2017-06-10T22:29:43.973Z,10.57
2017-06-10T22:32:12.205Z,7.00
2017-06-10T22:34:40.507Z,8.03
2017-06-10T22:37:08.822Z,5.73
2017-06-10T22:39:37.055Z,7.10
2017-06-10T22:42:05.583Z,5.93
2017-06-10T22:44:33.818Z,6.30
2017-06-10T22:47:02.176Z,7.60
2017-06-10T22:49:30.452Z,6.80
2017-06-10T22:51:58.689Z,10.90
2017-06-10T22:54:26.926Z,8.77
2017-06-10T22:56:55.926Z,10.77
2017-06-10T22:59:24.166Z,12.30
2017-06-10T23:01:52.418Z,10.10
2017-06-10T23:04:20.679Z,12.60
2017-06-10T23:06:49.174Z,11.50
2017-06-10T23:09:17.399Z,11.60
2017-06-10T23:11:46.230Z,10.70
2017-06-10T23:14:14.468Z,9.30
2017-06-10T23:16:42.700Z,8.97
2017-06-10T23:19:10.978Z,11.07
2017-06-10T23:21:39.212Z,9.00
2017-06-10T23:24:07.447Z,12.07
2017-06-10T23:26:35.725Z,7.57
2017-06-10T23:29:03.974Z,7.87
2017-06-10T23:31:32.199Z,10.33
2017-06-10T23:34:00.484Z,8.70
2017-06-10T23:36:28.723Z,11.70
2017-06-10T23:38:56.961Z,8.50
2017-06-10T23:41:25.329Z,8.70
2017-06-10T23:43:53.553Z,8.77
2017-06-10T23:46:21.792Z,10.10
2017-06-10T23:48:50.075Z,10.23
2017-06-10T23:51:18.723Z,12.07
2017-06-10T23:53:46.960Z,12.10
2017-06-10T23:56:15.237Z,9.97
2017-06-10T23:58:43.481Z,13.67
